createdAt,value
2018-03-31T00:00:37.428Z,5.13
2018-03-31T00:03:04.147Z,4.47
2018-03-31T00:05:30.837Z,5.40
2018-03-31T00:07:57.529Z,5.50
2018-03-31T00:10:24.233Z,4.70
2018-03-31T00:12:50.940Z,4.93
2018-03-31T00:15:17.638Z,5.00
2018-03-31T00:17:44.913Z,4.90
2018-03-31T00:20:11.606Z,4.10
2018-03-31T00:22:38.070Z,3.57
2018-03-31T00:25:05.638Z,4.13
2018-03-31T00:27:32.330Z,4.10
2018-03-31T00:29:59.084Z,4.87
2018-03-31T00:32:25.777Z,4.73
2018-03-31T00:34:52.484Z,4.23
2018-03-31T00:37:19.183Z,4.70
2018-03-31T00:39:45.889Z,5.20
2018-03-31T00:42:12.577Z,4.30
2018-03-31T00:44:39.278Z,4.50
2018-03-31T00:47:05.980Z,4.33
2018-03-31T00:49:32.688Z,4.73
2018-03-31T00:51:59.391Z,5.43
2018-03-31T00:54:26.093Z,5.70
2018-03-31T00:56:52.823Z,5.60
2018-03-31T00:59:19.526Z,4.63
2018-03-31T01:01:46.411Z,5.00
2018-03-31T01:04:13.117Z,7.40
2018-03-31T01:06:39.812Z,6.20
2018-03-31T01:09:06.512Z,4.90
2018-03-31T01:11:33.214Z,5.20
2018-03-31T01:13:59.914Z,5.50
2018-03-31T01:16:26.604Z,5.60
2018-03-31T01:18:53.320Z,5.03
2018-03-31T01:21:20.028Z,4.83
2018-03-31T01:23:46.737Z,5.03
2018-03-31T01:26:13.902Z,5.80
2018-03-31T01:28:40.590Z,4.90
2018-03-31T01:31:07.277Z,4.97
2018-03-31T01:33:33.973Z,5.00
2018-03-31T01:36:00.671Z,4.87
2018-03-31T01:38:27.361Z,5.20
2018-03-31T01:40:54.076Z,6.40
2018-03-31T01:43:20.768Z,5.10
2018-03-31T01:45:47.481Z,5.30
2018-03-31T01:48:14.166Z,5.30
2018-03-31T01:50:40.877Z,5.20
2018-03-31T01:53:07.597Z,6.10
2018-03-31T01:55:34.306Z,5.40
2018-03-31T01:58:01.001Z,5.80
2018-03-31T02:00:27.699Z,5.20
2018-03-31T02:02:54.452Z,5.47
2018-03-31T02:05:21.142Z,7.00
2018-03-31T02:07:47.837Z,5.80
2018-03-31T02:10:14.533Z,6.63
2018-03-31T02:12:41.237Z,6.23
2018-03-31T02:15:07.948Z,6.17
2018-03-31T02:17:34.638Z,6.73
2018-03-31T02:20:01.334Z,6.60
2018-03-31T02:22:28.296Z,6.17
2018-03-31T02:24:55.227Z,7.30
2018-03-31T02:27:21.912Z,6.70
2018-03-31T02:29:48.607Z,5.80
2018-03-31T02:32:15.313Z,4.73
2018-03-31T02:34:42.017Z,6.00
2018-03-31T02:37:09.433Z,5.73
2018-03-31T02:39:36.121Z,5.30
2018-03-31T02:42:03.102Z,5.57
2018-03-31T02:44:29.807Z,5.63
2018-03-31T02:46:56.499Z,5.93
2018-03-31T02:49:23.204Z,5.70
2018-03-31T02:51:49.897Z,6.97
2018-03-31T02:54:16.619Z,6.00
2018-03-31T02:56:43.326Z,7.00
2018-03-31T02:59:11.005Z,6.20
2018-03-31T03:01:37.709Z,6.83
2018-03-31T03:04:05.115Z,5.93
2018-03-31T03:06:31.828Z,6.97
2018-03-31T03:08:58.520Z,6.57
2018-03-31T03:11:25.214Z,6.60
2018-03-31T03:13:51.977Z,7.30
2018-03-31T03:16:18.673Z,6.87
2018-03-31T03:18:45.406Z,7.20
2018-03-31T03:21:12.101Z,7.47
2018-03-31T03:23:38.802Z,7.03
2018-03-31T03:26:05.500Z,7.37
2018-03-31T03:28:32.204Z,6.87
2018-03-31T03:30:58.901Z,7.30
2018-03-31T03:33:25.596Z,6.97
2018-03-31T03:35:52.321Z,7.47
2018-03-31T03:38:19.015Z,7.00
2018-03-31T03:40:45.738Z,7.40
2018-03-31T03:43:12.441Z,9.10
2018-03-31T03:45:39.134Z,7.67
2018-03-31T03:48:05.829Z,7.77
2018-03-31T03:50:32.549Z,7.07
2018-03-31T03:52:59.243Z,7.10
2018-03-31T03:55:25.944Z,7.40
2018-03-31T03:57:52.634Z,6.50
2018-03-31T04:00:19.344Z,6.73
2018-03-31T04:02:46.509Z,8.00
2018-03-31T04:05:13.225Z,7.33
2018-03-31T04:07:39.696Z,7.50
2018-03-31T04:10:08.157Z,7.87
2018-03-31T04:12:34.865Z,8.30
2018-03-31T04:15:01.562Z,9.50
2018-03-31T04:17:28.263Z,8.97
2018-03-31T04:19:54.962Z,8.33
2018-03-31T04:22:21.658Z,8.37
2018-03-31T04:24:48.592Z,8.50
2018-03-31T04:27:15.302Z,8.73
2018-03-31T04:29:42.018Z,8.77
2018-03-31T04:32:08.711Z,9.37
2018-03-31T04:34:35.427Z,9.10
2018-03-31T04:37:02.126Z,8.87
2018-03-31T04:39:28.808Z,8.87
2018-03-31T04:41:55.505Z,8.47
2018-03-31T04:44:22.214Z,8.43
2018-03-31T04:46:48.911Z,8.70
2018-03-31T04:49:15.808Z,9.70
2018-03-31T04:51:42.269Z,8.63
2018-03-31T04:54:08.729Z,9.30
2018-03-31T04:56:35.485Z,9.37
2018-03-31T04:59:02.193Z,9.20
2018-03-31T05:01:28.887Z,8.07
2018-03-31T05:03:55.351Z,9.20
2018-03-31T05:06:21.813Z,8.70
2018-03-31T05:08:48.265Z,8.33
2018-03-31T05:11:14.994Z,7.93
2018-03-31T05:13:41.485Z,9.53
2018-03-31T05:16:07.965Z,9.00
2018-03-31T05:18:34.443Z,9.77
2018-03-31T05:21:01.136Z,8.80
2018-03-31T05:23:27.845Z,9.33
2018-03-31T05:25:54.547Z,8.73
2018-03-31T05:28:21.027Z,8.37
2018-03-31T05:30:47.744Z,8.90
2018-03-31T05:33:14.211Z,8.17
2018-03-31T05:35:40.919Z,8.10
2018-03-31T05:38:07.615Z,9.60
2018-03-31T05:40:34.338Z,8.93
2018-03-31T05:43:01.060Z,8.57
2018-03-31T05:45:27.762Z,8.80
2018-03-31T05:47:54.462Z,9.10
2018-03-31T05:50:21.204Z,9.13
2018-03-31T05:52:47.901Z,9.10
2018-03-31T05:55:14.630Z,8.20
2018-03-31T05:57:41.327Z,7.70
2018-03-31T06:00:10.037Z,8.07
2018-03-31T06:02:36.949Z,8.63
2018-03-31T06:05:07.170Z,9.73
2018-03-31T06:07:33.918Z,7.80
2018-03-31T06:10:00.660Z,8.33
2018-03-31T06:12:27.383Z,7.30
2018-03-31T06:14:54.194Z,7.63
2018-03-31T06:17:20.888Z,7.20
2018-03-31T06:19:47.621Z,7.07
2018-03-31T06:22:14.342Z,6.67
2018-03-31T06:24:41.077Z,8.13
2018-03-31T06:27:07.805Z,6.97
2018-03-31T06:29:34.493Z,7.53
2018-03-31T06:32:01.182Z,6.70
2018-03-31T06:34:28.012Z,6.07
2018-03-31T06:36:54.776Z,6.87
2018-03-31T06:39:21.461Z,5.50
2018-03-31T06:41:48.146Z,6.03
2018-03-31T06:44:14.898Z,6.40
2018-03-31T06:46:41.602Z,5.80
2018-03-31T06:49:08.312Z,5.70
2018-03-31T06:51:35.000Z,6.03
2018-03-31T06:54:01.754Z,5.63
2018-03-31T06:56:28.585Z,6.00
2018-03-31T06:58:55.288Z,4.87
2018-03-31T07:01:21.978Z,5.57
2018-03-31T07:03:48.661Z,5.60
2018-03-31T07:06:15.352Z,4.73
2018-03-31T07:08:42.074Z,5.40
2018-03-31T07:11:08.770Z,5.30
2018-03-31T07:13:35.514Z,5.80
2018-03-31T07:16:02.233Z,4.50
2018-03-31T07:18:28.937Z,4.53
2018-03-31T07:20:55.758Z,5.07
2018-03-31T07:23:23.016Z,4.43
2018-03-31T07:25:49.708Z,4.30
2018-03-31T07:28:16.404Z,4.30
2018-03-31T07:30:43.124Z,3.80
2018-03-31T07:33:09.854Z,3.73
2018-03-31T07:35:36.550Z,3.70
2018-03-31T07:38:03.288Z,4.13
2018-03-31T07:40:29.992Z,3.53
2018-03-31T07:42:56.700Z,3.53
2018-03-31T07:45:23.385Z,3.97
2018-03-31T07:47:50.107Z,4.63
2018-03-31T07:50:16.806Z,3.23
2018-03-31T07:52:43.493Z,3.93
2018-03-31T07:55:10.389Z,3.90
2018-03-31T07:57:37.082Z,3.30
2018-03-31T08:00:03.789Z,4.20
2018-03-31T08:02:30.493Z,3.10
2018-03-31T08:04:57.632Z,2.83
2018-03-31T08:07:24.324Z,3.60
2018-03-31T08:09:51.021Z,3.50
2018-03-31T08:12:17.724Z,2.90
2018-03-31T08:14:44.413Z,3.67
2018-03-31T08:17:11.114Z,2.90
2018-03-31T08:19:37.813Z,3.30
2018-03-31T08:22:04.573Z,2.70
2018-03-31T08:24:31.342Z,3.23
2018-03-31T08:26:58.488Z,3.43
2018-03-31T08:29:25.326Z,3.10
2018-03-31T08:31:52.106Z,3.30
2018-03-31T08:34:18.813Z,2.80
2018-03-31T08:36:45.790Z,3.07
2018-03-31T08:39:12.496Z,2.30
2018-03-31T08:41:39.225Z,2.90
2018-03-31T08:44:06.082Z,2.93
2018-03-31T08:46:32.794Z,2.83
2018-03-31T08:48:59.483Z,2.90
2018-03-31T08:51:26.165Z,2.47
2018-03-31T08:53:52.869Z,2.80
2018-03-31T08:56:19.573Z,2.63
2018-03-31T08:58:46.284Z,2.07
2018-03-31T09:01:12.962Z,2.63
2018-03-31T09:03:39.693Z,2.60
2018-03-31T09:06:06.388Z,2.20
2018-03-31T09:08:33.077Z,2.60
2018-03-31T09:10:59.793Z,2.03
2018-03-31T09:13:26.509Z,1.87
2018-03-31T09:15:53.252Z,2.17
2018-03-31T09:18:19.953Z,2.27
2018-03-31T09:20:46.651Z,2.40
2018-03-31T09:23:13.335Z,2.33
2018-03-31T09:25:40.028Z,1.90
2018-03-31T09:28:06.718Z,1.63
2018-03-31T09:30:33.414Z,2.10
2018-03-31T09:33:00.171Z,2.47
2018-03-31T09:35:29.418Z,2.43
2018-03-31T09:37:56.136Z,2.10
2018-03-31T09:40:22.829Z,1.67
2018-03-31T09:42:49.516Z,2.00
2018-03-31T09:45:16.941Z,2.07
2018-03-31T09:47:43.642Z,1.63
2018-03-31T09:50:10.405Z,2.20
2018-03-31T09:52:37.143Z,2.30
2018-03-31T09:55:03.885Z,2.37
2018-03-31T09:57:30.641Z,1.87
2018-03-31T09:59:57.828Z,2.47
2018-03-31T10:02:24.652Z,1.93
2018-03-31T10:04:52.603Z,2.17
2018-03-31T10:07:19.346Z,1.90
2018-03-31T10:09:46.284Z,1.63
2018-03-31T10:12:13.457Z,2.60
2018-03-31T10:14:40.159Z,1.93
2018-03-31T10:17:06.853Z,1.80
2018-03-31T10:19:33.557Z,1.60
2018-03-31T10:22:00.283Z,2.20
2018-03-31T10:24:26.972Z,2.03
2018-03-31T10:26:53.695Z,2.70
2018-03-31T10:29:21.238Z,1.60
2018-03-31T10:31:47.955Z,1.47
2018-03-31T10:34:14.891Z,2.10
2018-03-31T10:36:41.586Z,1.70
2018-03-31T10:39:08.282Z,1.80
2018-03-31T10:41:34.968Z,1.47
2018-03-31T10:44:01.420Z,1.67
2018-03-31T10:46:29.057Z,2.00
2018-03-31T10:48:56.703Z,1.67
2018-03-31T10:51:23.389Z,1.70
2018-03-31T10:53:50.125Z,1.80
2018-03-31T10:56:16.829Z,1.40
2018-03-31T10:58:43.633Z,1.70
2018-03-31T11:01:10.339Z,1.67
2018-03-31T11:03:37.087Z,1.30
2018-03-31T11:06:03.855Z,1.43
2018-03-31T11:08:30.558Z,1.80
2018-03-31T11:10:57.273Z,2.03
2018-03-31T11:13:23.957Z,1.60
2018-03-31T11:15:50.645Z,2.00
2018-03-31T11:18:17.744Z,2.17
2018-03-31T11:20:45.025Z,1.73
2018-03-31T11:23:11.834Z,3.10
2018-03-31T11:25:38.653Z,6.23
2018-03-31T11:28:05.361Z,3.40
2018-03-31T11:30:32.059Z,1.73
2018-03-31T11:32:58.765Z,1.67
2018-03-31T11:35:25.494Z,2.00
2018-03-31T11:37:52.202Z,2.80
2018-03-31T11:40:18.935Z,2.07
2018-03-31T11:42:45.617Z,2.00
2018-03-31T11:45:12.331Z,1.70
2018-03-31T11:47:39.016Z,1.87
2018-03-31T11:50:05.946Z,2.03
2018-03-31T11:52:32.636Z,2.10
2018-03-31T11:54:59.336Z,2.00
2018-03-31T11:57:26.037Z,2.77
2018-03-31T11:59:52.727Z,2.00
2018-03-31T12:02:19.415Z,3.07
2018-03-31T12:04:46.109Z,6.00
2018-03-31T12:07:12.813Z,4.70
2018-03-31T12:09:39.548Z,4.30
2018-03-31T12:12:06.196Z,4.10
2018-03-31T12:14:32.886Z,4.63
2018-03-31T12:16:59.594Z,3.30
2018-03-31T12:19:26.273Z,2.90
2018-03-31T12:21:52.967Z,3.10
2018-03-31T12:24:19.658Z,2.63
2018-03-31T12:26:46.618Z,2.80
2018-03-31T12:29:13.310Z,2.47
2018-03-31T12:31:39.998Z,2.80
2018-03-31T12:34:06.710Z,1.60
2018-03-31T12:36:33.447Z,1.00
2018-03-31T12:39:00.139Z,1.33
2018-03-31T12:41:26.830Z,1.07
2018-03-31T12:43:53.527Z,2.30
2018-03-31T12:46:20.589Z,1.60
2018-03-31T12:48:47.349Z,1.20
2018-03-31T12:51:14.056Z,0.73
2018-03-31T12:53:40.757Z,1.50
2018-03-31T12:56:07.481Z,5.57
2018-03-31T12:58:34.179Z,8.60
2018-03-31T13:01:01.114Z,8.50
2018-03-31T13:03:27.819Z,8.70
2018-03-31T13:05:55.276Z,9.03
2018-03-31T13:08:21.965Z,9.20
2018-03-31T13:10:48.677Z,9.57
2018-03-31T13:13:15.136Z,8.57
2018-03-31T13:15:41.837Z,9.37
2018-03-31T13:18:08.485Z,8.80
2018-03-31T13:20:35.178Z,8.93
2018-03-31T13:23:01.878Z,10.13
2018-03-31T13:25:28.571Z,9.43
2018-03-31T13:27:55.273Z,9.70
2018-03-31T13:30:22.005Z,8.87
2018-03-31T13:32:48.877Z,9.80
2018-03-31T13:35:15.611Z,13.17
2018-03-31T13:37:43.164Z,10.40
2018-03-31T13:40:09.883Z,9.60
2018-03-31T13:42:36.574Z,7.93
2018-03-31T13:45:03.270Z,9.63
2018-03-31T13:47:29.974Z,8.80
2018-03-31T13:49:56.716Z,7.53
2018-03-31T13:52:23.421Z,8.70
2018-03-31T13:54:50.126Z,8.67
2018-03-31T13:57:16.886Z,8.27
2018-03-31T13:59:44.946Z,7.50
2018-03-31T14:02:11.977Z,8.67
2018-03-31T14:04:38.744Z,8.47
2018-03-31T14:07:05.500Z,8.33
2018-03-31T14:09:32.196Z,7.47
2018-03-31T14:11:58.936Z,8.07
2018-03-31T14:14:25.694Z,7.30
2018-03-31T14:16:52.596Z,8.17
2018-03-31T14:19:19.470Z,7.40
2018-03-31T14:21:46.160Z,7.73
2018-03-31T14:24:12.857Z,7.57
2018-03-31T14:26:39.606Z,7.10
2018-03-31T14:29:06.305Z,7.50
2018-03-31T14:31:32.996Z,7.60
2018-03-31T14:33:59.714Z,8.13
2018-03-31T14:36:26.399Z,7.13
2018-03-31T14:38:53.341Z,8.07
2018-03-31T14:41:20.040Z,6.97
2018-03-31T14:43:46.747Z,7.10
2018-03-31T14:46:13.501Z,6.50
2018-03-31T14:48:40.233Z,7.57
2018-03-31T14:51:06.959Z,7.77
2018-03-31T14:53:33.654Z,7.80
2018-03-31T14:56:00.338Z,6.43
2018-03-31T14:58:27.102Z,7.53
2018-03-31T15:00:53.581Z,7.00
2018-03-31T15:03:20.413Z,7.23
2018-03-31T15:05:47.729Z,7.27
2018-03-31T15:08:14.418Z,8.87
2018-03-31T15:10:41.155Z,7.50
2018-03-31T15:13:08.016Z,6.87
2018-03-31T15:15:35.514Z,7.80
2018-03-31T15:18:02.306Z,9.03
2018-03-31T15:20:29.022Z,8.70
2018-03-31T15:22:55.797Z,8.73
2018-03-31T15:25:22.506Z,8.93
2018-03-31T15:27:49.199Z,7.87
2018-03-31T15:30:15.919Z,9.07
2018-03-31T15:32:42.632Z,9.33
2018-03-31T15:35:09.412Z,9.30
2018-03-31T15:37:36.126Z,10.10
2018-03-31T15:40:02.907Z,9.17
2018-03-31T15:42:29.739Z,10.07
2018-03-31T15:44:56.456Z,11.40
2018-03-31T15:47:23.152Z,10.50
2018-03-31T15:49:50.017Z,11.07
2018-03-31T15:52:16.742Z,11.93
2018-03-31T15:54:43.443Z,11.27
2018-03-31T15:57:10.160Z,11.43
2018-03-31T15:59:36.858Z,11.67
2018-03-31T16:02:03.600Z,11.77
2018-03-31T16:04:30.322Z,12.20
2018-03-31T16:06:57.039Z,12.50
2018-03-31T16:09:23.740Z,12.47
2018-03-31T16:11:50.463Z,12.20
2018-03-31T16:14:17.161Z,12.90
2018-03-31T16:16:44.060Z,13.27
2018-03-31T16:19:10.766Z,12.30
2018-03-31T16:21:37.475Z,11.63
2018-03-31T16:24:04.156Z,13.50
2018-03-31T16:26:30.870Z,12.70
2018-03-31T16:28:57.650Z,12.20
2018-03-31T16:31:24.494Z,13.47
2018-03-31T16:33:51.187Z,13.27
2018-03-31T16:36:17.901Z,14.00
2018-03-31T16:38:44.666Z,14.10
2018-03-31T16:41:11.436Z,13.93
2018-03-31T16:43:38.149Z,12.70
2018-03-31T16:46:04.913Z,13.57
2018-03-31T16:48:31.665Z,13.20
2018-03-31T16:50:58.356Z,12.77
2018-03-31T16:53:25.054Z,13.57
2018-03-31T16:55:51.816Z,10.60
2018-03-31T16:58:18.787Z,11.17
2018-03-31T17:00:45.665Z,9.50
2018-03-31T17:03:12.363Z,9.00
2018-03-31T17:05:39.124Z,8.07
2018-03-31T17:08:06.130Z,9.18
2018-03-31T17:10:33.181Z,8.02
2018-03-31T17:12:59.877Z,7.00
2018-03-31T17:15:26.577Z,7.90
2018-03-31T17:17:53.281Z,6.83
2018-03-31T17:20:19.983Z,7.57
2018-03-31T17:22:46.761Z,7.87
2018-03-31T17:25:15.961Z,6.40
2018-03-31T17:27:42.733Z,6.37
2018-03-31T17:30:15.463Z,6.97
2018-03-31T17:32:42.378Z,6.70
2018-03-31T17:35:14.846Z,6.73
2018-03-31T17:37:41.567Z,6.70
2018-03-31T17:40:15.623Z,6.63
2018-03-31T17:42:42.327Z,6.43
2018-03-31T17:45:14.571Z,5.90
2018-03-31T17:47:42.638Z,7.23
2018-03-31T17:50:15.589Z,7.03
2018-03-31T17:52:42.498Z,6.83
2018-03-31T17:55:14.851Z,6.90
2018-03-31T17:57:41.565Z,7.27
2018-03-31T18:00:08.384Z,7.40
2018-03-31T18:02:35.095Z,7.33
2018-03-31T18:05:01.881Z,8.37
2018-03-31T18:07:28.766Z,7.13
2018-03-31T18:09:55.557Z,8.47
2018-03-31T18:12:22.252Z,8.43
2018-03-31T18:14:49.416Z,7.43
2018-03-31T18:17:16.128Z,8.23
2018-03-31T18:19:42.842Z,7.07
2018-03-31T18:22:09.564Z,7.93
2018-03-31T18:24:36.258Z,9.07
2018-03-31T18:27:03.046Z,9.07
2018-03-31T18:29:29.762Z,8.47
2018-03-31T18:31:56.505Z,8.80
2018-03-31T18:34:23.208Z,7.23
2018-03-31T18:36:49.925Z,8.50
2018-03-31T18:39:17.346Z,8.27
2018-03-31T18:41:44.043Z,8.10
2018-03-31T18:44:10.752Z,9.30
2018-03-31T18:46:37.608Z,9.40
2018-03-31T18:49:04.351Z,9.47
2018-03-31T18:51:31.077Z,10.40
2018-03-31T18:53:57.789Z,9.50
2018-03-31T18:56:24.493Z,9.70
2018-03-31T18:58:51.213Z,10.27
2018-03-31T19:01:17.935Z,10.33
2018-03-31T19:03:44.644Z,9.60
2018-03-31T19:06:11.425Z,11.17
2018-03-31T19:08:38.223Z,11.77
2018-03-31T19:11:04.941Z,12.00
2018-03-31T19:13:31.635Z,12.30
2018-03-31T19:15:58.337Z,13.00
2018-03-31T19:18:25.058Z,13.30
2018-03-31T19:20:52.060Z,12.37
2018-03-31T19:23:18.827Z,14.00
2018-03-31T19:25:45.684Z,14.83
2018-03-31T19:28:12.451Z,14.77
2018-03-31T19:30:44.506Z,15.80
2018-03-31T19:33:11.213Z,16.83
2018-03-31T19:35:43.361Z,17.40
2018-03-31T19:38:10.101Z,16.93
2018-03-31T19:40:37.071Z,17.10
2018-03-31T19:43:03.790Z,17.47
2018-03-31T19:45:30.699Z,15.63
2018-03-31T19:47:57.667Z,16.17
2018-03-31T19:50:24.377Z,19.10
2018-03-31T19:52:51.185Z,20.57
2018-03-31T19:55:17.885Z,21.27
2018-03-31T19:57:44.586Z,20.33
2018-03-31T20:00:16.147Z,20.83
2018-03-31T20:02:42.886Z,21.13
2018-03-31T20:05:15.650Z,22.85
2018-03-31T20:19:15.289Z,11.70
2018-03-31T20:21:42.605Z,13.77
2018-03-31T20:24:10.278Z,14.60
2018-03-31T20:26:37.410Z,15.90
2018-03-31T20:29:06.931Z,16.43
2018-03-31T20:31:34.114Z,17.93
2018-03-31T20:36:03.806Z,17.83
2018-03-31T20:38:31.284Z,18.07
2018-03-31T20:40:58.557Z,19.40
2018-03-31T20:43:25.834Z,20.67
2018-03-31T20:45:53.140Z,19.23
2018-03-31T20:48:20.999Z,19.10
2018-03-31T20:50:48.396Z,19.43
2018-03-31T20:53:16.414Z,19.83
2018-03-31T20:55:48.816Z,18.33
2018-03-31T20:58:18.027Z,20.73
2018-03-31T21:00:45.315Z,16.57
2018-03-31T21:03:14.926Z,17.40
2018-03-31T21:05:42.613Z,14.50
2018-03-31T21:08:09.942Z,11.10
2018-03-31T21:10:37.229Z,12.30
2018-03-31T21:13:04.503Z,11.00
2018-03-31T21:15:31.820Z,11.47
2018-03-31T21:17:59.119Z,10.60
2018-03-31T21:20:26.393Z,12.03
2018-03-31T21:22:53.764Z,11.57
2018-03-31T21:25:21.039Z,12.60
2018-03-31T21:27:48.310Z,12.13
2018-03-31T21:30:17.577Z,12.43
2018-03-31T21:32:44.917Z,12.83
2018-03-31T21:35:16.270Z,12.83
2018-03-31T21:37:43.889Z,13.20
2018-03-31T21:40:19.950Z,12.37
2018-03-31T21:42:47.229Z,12.60
2018-03-31T21:45:18.220Z,12.50
2018-03-31T21:47:45.486Z,13.97
2018-03-31T21:50:17.478Z,12.70
2018-03-31T21:52:44.806Z,13.07
2018-03-31T21:55:17.661Z,14.83
2018-03-31T21:57:44.955Z,13.40
2018-03-31T22:00:18.060Z,14.30
2018-03-31T22:02:45.344Z,16.53
2018-03-31T22:05:17.489Z,13.40
2018-03-31T22:07:44.759Z,10.90
2018-03-31T22:10:17.238Z,11.10
2018-03-31T22:12:44.575Z,11.53
2018-03-31T22:15:22.544Z,12.37
2018-03-31T22:17:50.323Z,11.90
2018-03-31T22:20:18.040Z,12.47
2018-03-31T22:22:45.323Z,11.73
2018-03-31T22:25:16.931Z,12.93
2018-03-31T22:27:44.187Z,11.43
2018-03-31T22:30:18.340Z,11.20
2018-03-31T22:32:45.631Z,12.53
2018-03-31T22:35:17.734Z,11.83
2018-03-31T22:37:45.025Z,11.20
2018-03-31T22:40:16.380Z,12.83
2018-03-31T22:42:43.666Z,12.33
2018-03-31T22:45:12.449Z,11.65
2018-03-31T22:47:39.746Z,11.80
2018-03-31T22:50:16.162Z,11.77
2018-03-31T22:52:43.438Z,11.27
2018-03-31T22:55:10.686Z,11.50
2018-03-31T22:57:37.956Z,11.73
2018-03-31T23:00:11.196Z,11.10
2018-03-31T23:02:38.603Z,10.20
2018-03-31T23:05:12.217Z,10.20
2018-03-31T23:07:39.487Z,10.23
2018-03-31T23:10:12.313Z,10.67
2018-03-31T23:12:39.775Z,10.63
2018-03-31T23:15:16.880Z,11.20
2018-03-31T23:17:43.918Z,11.70
2018-03-31T23:20:17.130Z,11.67
2018-03-31T23:22:44.421Z,9.93
2018-03-31T23:25:11.742Z,9.50
2018-03-31T23:27:39.027Z,11.70
2018-03-31T23:30:17.019Z,13.17
2018-03-31T23:32:44.289Z,11.67
2018-03-31T23:35:11.567Z,11.77
2018-03-31T23:37:38.856Z,13.23
2018-03-31T23:40:09.781Z,13.33
2018-03-31T23:42:37.048Z,14.00
2018-03-31T23:45:04.225Z,15.20
2018-03-31T23:47:33.874Z,14.83
2018-03-31T23:50:01.143Z,14.63
2018-03-31T23:52:28.407Z,14.80
2018-03-31T23:54:55.675Z,10.17
2018-03-31T23:57:22.958Z,11.37
2018-03-31T23:59:50.262Z,12.43
